createdAt,value
2022-11-05T00:04:14.289Z,9.754515
2022-11-05T00:05:14.267Z,9.754515
2022-11-05T00:06:14.207Z,9.754515
2022-11-05T00:07:15.220Z,9.754515
2022-11-05T00:08:14.196Z,9.754515
2022-11-05T00:09:14.205Z,9.756928
2022-11-05T00:10:14.217Z,9.756953
2022-11-05T00:11:18.135Z,9.756222
2022-11-05T00:12:15.161Z,9.757641
2022-11-05T00:13:15.162Z,9.758291
2022-11-05T00:14:14.140Z,9.757557
2022-11-05T00:15:14.162Z,9.757409
2022-11-05T00:16:14.126Z,9.757417
2022-11-05T00:17:14.124Z,9.757542
2022-11-05T00:18:14.111Z,9.757602
2022-11-05T00:19:14.109Z,9.757525
2022-11-05T00:20:14.148Z,9.757515
2022-11-05T00:21:14.086Z,9.757400
2022-11-05T00:22:14.077Z,9.757350
2022-11-05T00:23:14.064Z,9.757433
2022-11-05T00:24:14.063Z,9.757625
2022-11-05T00:25:14.090Z,9.757928
2022-11-05T00:26:14.043Z,9.757931
2022-11-05T00:27:14.044Z,9.757503
2022-11-05T00:28:14.272Z,9.757587
2022-11-05T00:29:14.035Z,9.757201
2022-11-05T00:30:14.041Z,9.757181
2022-11-05T00:31:14.008Z,9.757483
2022-11-05T00:32:13.997Z,9.757674
2022-11-05T00:33:13.983Z,9.757711
2022-11-05T00:34:13.994Z,9.757994
2022-11-05T00:35:14.019Z,9.758089
2022-11-05T00:36:13.963Z,9.757565
2022-11-05T00:37:13.959Z,9.754742
2022-11-05T00:38:13.959Z,9.756846
2022-11-05T00:39:13.938Z,9.757314
2022-11-05T00:40:13.958Z,9.757038
2022-11-05T00:41:13.924Z,9.757382
2022-11-05T00:42:13.910Z,9.757585
2022-11-05T00:43:14.070Z,9.758194
2022-11-05T00:44:13.889Z,9.758116
2022-11-05T00:45:13.911Z,9.758299
2022-11-05T00:46:13.894Z,9.757910
2022-11-05T00:47:13.863Z,9.757689
2022-11-05T00:48:13.884Z,9.757595
2022-11-05T00:49:13.894Z,9.757501
2022-11-05T00:50:13.885Z,9.757545
2022-11-05T00:51:13.853Z,9.757530
2022-11-05T00:52:13.818Z,9.757411
2022-11-05T00:53:14.017Z,9.757540
2022-11-05T00:54:13.834Z,9.757483
2022-11-05T00:55:13.843Z,9.757480
2022-11-05T00:56:13.805Z,9.757595
2022-11-05T00:57:13.808Z,9.757412
2022-11-05T00:58:13.771Z,9.757529
2022-11-05T00:59:13.790Z,9.757778
2022-11-05T01:00:13.871Z,9.757517
2022-11-05T01:01:13.816Z,9.757561
2022-11-05T01:02:13.854Z,9.757655
2022-11-05T01:03:14.182Z,9.757730
2022-11-05T01:04:13.713Z,9.757689
2022-11-05T01:05:13.758Z,9.757852
2022-11-05T01:06:13.703Z,9.757791
2022-11-05T01:07:13.715Z,9.757412
2022-11-05T01:08:13.709Z,9.757483
2022-11-05T01:09:13.680Z,9.757663
2022-11-05T01:10:13.697Z,9.757586
2022-11-05T01:11:13.688Z,9.757594
2022-11-05T01:12:13.660Z,9.757709
2022-11-05T01:13:13.744Z,9.757542
2022-11-05T01:14:13.640Z,9.757641
2022-11-05T01:15:13.671Z,9.757649
2022-11-05T01:16:13.615Z,9.757425
2022-11-05T01:17:13.616Z,9.757517
2022-11-05T01:18:13.598Z,9.757499
2022-11-05T01:19:13.589Z,9.757509
2022-11-05T01:20:13.627Z,9.757509
2022-11-05T01:21:13.571Z,9.757458
2022-11-05T01:22:13.569Z,9.757480
2022-11-05T01:23:14.017Z,9.757541
2022-11-05T01:24:14.546Z,9.757583
2022-11-05T01:25:13.589Z,9.757544
2022-11-05T01:26:13.530Z,9.757519
2022-11-05T01:27:13.552Z,9.757415
2022-11-05T01:28:13.532Z,9.757525
2022-11-05T01:29:13.626Z,9.757413
2022-11-05T01:30:13.527Z,9.757518
2022-11-05T01:31:13.526Z,9.757482
2022-11-05T01:32:13.563Z,9.757856
2022-11-05T01:33:13.893Z,9.757747
2022-11-05T01:34:13.487Z,9.757538
2022-11-05T01:35:13.473Z,9.757362
2022-11-05T01:36:13.473Z,9.757329
2022-11-05T01:37:13.470Z,9.757328
2022-11-05T01:38:13.441Z,9.757314
2022-11-05T01:39:13.431Z,9.757252
2022-11-05T01:40:13.416Z,9.757442
2022-11-05T01:41:14.446Z,9.757421
2022-11-05T01:42:13.398Z,9.757438
2022-11-05T01:43:13.486Z,9.757481
2022-11-05T01:44:13.381Z,9.757526
2022-11-05T01:45:13.397Z,9.757480
2022-11-05T01:46:13.394Z,9.757442
2022-11-05T01:47:13.366Z,9.757548
2022-11-05T01:48:13.400Z,9.757519
2022-11-05T01:49:13.340Z,9.757203
2022-11-05T01:50:13.344Z,9.757363
2022-11-05T01:51:13.364Z,9.757360
2022-11-05T01:52:13.321Z,9.757484
2022-11-05T01:53:13.682Z,9.757483
2022-11-05T01:54:13.309Z,9.757563
2022-11-05T01:55:13.289Z,9.757340
2022-11-05T01:56:13.357Z,9.757315
2022-11-05T01:57:13.281Z,9.757470
2022-11-05T01:58:13.264Z,9.757639
2022-11-05T01:59:13.275Z,9.757536
2022-11-05T02:00:13.259Z,9.757407
2022-11-05T02:01:13.266Z,9.757351
2022-11-05T02:02:13.300Z,9.757368
2022-11-05T02:03:13.591Z,9.757463
2022-11-05T02:04:13.222Z,9.757439
2022-11-05T02:05:13.203Z,9.757543
2022-11-05T02:06:13.226Z,9.757579
2022-11-05T02:07:13.190Z,9.757629
2022-11-05T02:08:13.181Z,9.757312
2022-11-05T02:09:13.153Z,9.757543
2022-11-05T02:10:14.168Z,9.757688
2022-11-05T02:11:13.187Z,9.757724
2022-11-05T02:12:13.143Z,9.757776
2022-11-05T02:13:13.355Z,9.757724
2022-11-05T02:14:13.119Z,9.757726
2022-11-05T02:15:13.122Z,9.757594
2022-11-05T02:16:13.183Z,9.757648
2022-11-05T02:17:13.113Z,9.757624
2022-11-05T02:18:13.138Z,9.757298
2022-11-05T02:19:13.093Z,9.757461
2022-11-05T02:20:13.074Z,9.757424
2022-11-05T02:21:13.157Z,9.757479
2022-11-05T02:22:13.076Z,9.757565
2022-11-05T02:23:13.381Z,9.757537
2022-11-05T02:24:13.051Z,9.757680
2022-11-05T02:25:13.056Z,9.757798
2022-11-05T02:26:13.049Z,9.757199
2022-11-05T02:27:13.092Z,9.757137
2022-11-05T02:28:13.019Z,9.757293
2022-11-05T02:29:13.006Z,9.757413
2022-11-05T02:30:13.028Z,9.757657
2022-11-05T02:31:13.047Z,9.757522
2022-11-05T02:32:12.968Z,9.757563
2022-11-05T02:33:13.230Z,9.757522
2022-11-05T02:34:12.959Z,9.757481
2022-11-05T02:35:12.948Z,9.757556
2022-11-05T02:36:13.024Z,9.757683
2022-11-05T02:37:12.975Z,9.757683
2022-11-05T02:38:12.932Z,9.757710
2022-11-05T02:39:13.913Z,9.757714
2022-11-05T02:40:12.927Z,9.757900
2022-11-05T02:41:12.941Z,9.757709
2022-11-05T02:42:12.884Z,9.757781
2022-11-05T02:43:13.230Z,9.757911
2022-11-05T02:44:12.869Z,9.758150
2022-11-05T02:45:12.901Z,9.757835
2022-11-05T02:46:12.875Z,9.757669
2022-11-05T02:47:17.064Z,9.757481
2022-11-05T02:48:14.835Z,9.757927
2022-11-05T02:49:12.840Z,9.757879
2022-11-05T02:50:12.828Z,9.757659
2022-11-05T02:51:12.809Z,9.757463
2022-11-05T02:52:12.827Z,9.757551
2022-11-05T02:53:13.065Z,9.757644
2022-11-05T02:54:12.788Z,9.757652
2022-11-05T02:55:12.785Z,9.757804
2022-11-05T02:56:12.765Z,9.757821
2022-11-05T02:57:12.845Z,9.757724
2022-11-05T02:58:12.749Z,9.757926
2022-11-05T02:59:12.745Z,9.757877
2022-11-05T03:00:12.741Z,9.758039
2022-11-05T03:01:12.730Z,9.758039
2022-11-05T03:02:12.878Z,9.757983
2022-11-05T03:03:12.935Z,9.757713
2022-11-05T03:04:12.691Z,9.757727
2022-11-05T03:05:13.722Z,9.757363
2022-11-05T03:06:12.690Z,9.757429
2022-11-05T03:07:12.705Z,9.757385
2022-11-05T03:08:12.677Z,9.757621
2022-11-05T03:09:12.660Z,9.757467
2022-11-05T03:10:12.672Z,9.757596
2022-11-05T03:11:12.644Z,9.757625
2022-11-05T03:12:12.664Z,9.757538
2022-11-05T03:13:12.922Z,9.757453
2022-11-05T03:14:12.609Z,9.757582
2022-11-05T03:15:12.634Z,9.757408
2022-11-05T03:16:12.640Z,9.757469
2022-11-05T03:17:12.624Z,9.757631
2022-11-05T03:18:12.620Z,9.757637
2022-11-05T03:19:12.606Z,9.757688
2022-11-05T03:20:12.566Z,9.757968
2022-11-05T03:21:12.561Z,9.757706
2022-11-05T03:22:12.583Z,9.757567
2022-11-05T03:23:13.009Z,9.757561
2022-11-05T03:24:12.536Z,9.757532
2022-11-05T03:25:12.553Z,9.757578
2022-11-05T03:26:12.519Z,9.757750
2022-11-05T03:27:12.543Z,9.757727
2022-11-05T03:28:12.526Z,9.757700
2022-11-05T03:29:12.522Z,9.757596
2022-11-05T03:30:12.505Z,9.757524
2022-11-05T03:31:12.481Z,9.757598
2022-11-05T03:32:12.513Z,9.757537
2022-11-05T03:33:12.708Z,9.757575
2022-11-05T03:34:12.478Z,9.757406
2022-11-05T03:35:12.452Z,9.757487
2022-11-05T03:36:12.443Z,9.757442
2022-11-05T03:37:12.436Z,9.757652
2022-11-05T03:38:12.460Z,9.757828
2022-11-05T03:39:12.458Z,9.757568
2022-11-05T03:40:12.401Z,9.757759
2022-11-05T03:41:12.398Z,9.757398
2022-11-05T03:42:12.404Z,9.757404
2022-11-05T03:43:12.749Z,9.757565
2022-11-05T03:44:12.368Z,9.757378
2022-11-05T03:45:12.361Z,9.757502
2022-11-05T03:46:12.369Z,9.757501
2022-11-05T03:47:12.348Z,9.757545
2022-11-05T03:48:12.444Z,9.757402
2022-11-05T03:49:12.350Z,9.757304
2022-11-05T03:50:12.315Z,9.757605
2022-11-05T03:51:12.310Z,9.757772
2022-11-05T03:52:12.305Z,9.757967
2022-11-05T03:53:12.615Z,9.757730
2022-11-05T03:54:12.306Z,9.757792
2022-11-05T03:55:12.280Z,9.757832
2022-11-05T03:56:12.266Z,9.757577
2022-11-05T03:57:12.273Z,9.757544
2022-11-05T03:58:12.279Z,9.756927
2022-11-05T03:59:12.267Z,9.756755
2022-11-05T04:00:12.267Z,9.756154
2022-11-05T04:01:12.226Z,9.756385
2022-11-05T04:02:12.364Z,9.756616
2022-11-05T04:03:12.598Z,9.757043
2022-11-05T04:04:12.201Z,9.757464
2022-11-05T04:05:12.195Z,9.757944
2022-11-05T04:06:13.967Z,9.757829
2022-11-05T04:07:13.216Z,9.757564
2022-11-05T04:08:14.497Z,9.757555
2022-11-05T04:09:13.154Z,9.757179
2022-11-05T04:10:12.161Z,9.757483
2022-11-05T04:11:12.150Z,9.757534
2022-11-05T04:12:12.201Z,9.757596
2022-11-05T04:13:12.438Z,9.757606
2022-11-05T04:14:12.125Z,9.757638
2022-11-05T04:15:12.110Z,9.757589
2022-11-05T04:16:12.096Z,9.757540
2022-11-05T04:17:12.105Z,9.757593
2022-11-05T04:18:12.112Z,9.757472
2022-11-05T04:19:12.171Z,9.757574
2022-11-05T04:20:12.063Z,9.757502
2022-11-05T04:21:12.070Z,9.757586
2022-11-05T04:22:12.093Z,9.757557
2022-11-05T04:23:12.324Z,9.758045
2022-11-05T04:24:12.028Z,9.757706
2022-11-05T04:25:12.021Z,9.757854
2022-11-05T04:26:12.012Z,9.758080
2022-11-05T04:27:12.040Z,9.757521
2022-11-05T04:28:12.027Z,9.757460
2022-11-05T04:29:12.013Z,9.757398
2022-11-05T04:30:11.976Z,9.757450
2022-11-05T04:31:11.969Z,9.757396
2022-11-05T04:32:12.010Z,9.757384
2022-11-05T04:33:12.284Z,9.757331
2022-11-05T04:34:11.950Z,9.757464
2022-11-05T04:35:11.951Z,9.757369
2022-11-05T04:36:11.957Z,9.757453
2022-11-05T04:37:11.922Z,9.757434
2022-11-05T04:38:11.946Z,9.757620
2022-11-05T04:39:11.957Z,9.757510
2022-11-05T04:40:11.907Z,9.757472
2022-11-05T04:41:11.888Z,9.757490
2022-11-05T04:42:11.873Z,9.757346
2022-11-05T04:43:15.128Z,9.757411
2022-11-05T04:44:12.858Z,9.757397
2022-11-05T04:45:11.875Z,9.757288
2022-11-05T04:46:11.840Z,9.757442
2022-11-05T04:47:11.852Z,9.757447
2022-11-05T04:48:11.876Z,9.757393
2022-11-05T04:49:11.849Z,9.757446
2022-11-05T04:50:11.818Z,9.757586
2022-11-05T04:51:11.806Z,9.757607
2022-11-05T04:52:11.800Z,9.757405
2022-11-05T04:53:12.166Z,9.757453
2022-11-05T04:54:11.805Z,9.757455
2022-11-05T04:55:11.804Z,9.757371
2022-11-05T04:56:11.788Z,9.757374
2022-11-05T04:57:11.746Z,9.757400
2022-11-05T04:58:11.762Z,9.757330
2022-11-05T04:59:11.745Z,9.757366
2022-11-05T05:00:11.724Z,9.757396
2022-11-05T05:01:11.784Z,9.757401
2022-11-05T05:02:11.747Z,9.757318
2022-11-05T05:03:12.143Z,9.757415
2022-11-05T05:04:11.695Z,9.757471
2022-11-05T05:05:11.690Z,9.757487
2022-11-05T05:06:11.673Z,9.757428
2022-11-05T05:07:11.695Z,9.757658
2022-11-05T05:08:11.697Z,9.757512
2022-11-05T05:09:11.655Z,9.757385
2022-11-05T05:10:11.664Z,9.757605
2022-11-05T05:11:11.642Z,9.757481
2022-11-05T05:12:11.645Z,9.757545
2022-11-05T05:13:12.047Z,9.757287
2022-11-05T05:14:11.618Z,9.757507
2022-11-05T05:15:11.619Z,9.757600
2022-11-05T05:16:11.605Z,9.757481
2022-11-05T05:17:11.589Z,9.757440
2022-11-05T05:18:11.619Z,9.757418
2022-11-05T05:19:11.580Z,9.757451
2022-11-05T05:20:11.552Z,9.757471
2022-11-05T05:21:11.556Z,9.757444
2022-11-05T05:22:11.576Z,9.757532
2022-11-05T05:23:11.984Z,9.757576
2022-11-05T05:24:11.539Z,9.757593
2022-11-05T05:25:11.519Z,9.757494
2022-11-05T05:26:11.507Z,9.757543
2022-11-05T05:27:11.503Z,9.757763
2022-11-05T05:28:11.545Z,9.757684
2022-11-05T05:29:11.511Z,9.757185
2022-11-05T05:30:11.472Z,9.757420
2022-11-05T05:31:11.464Z,9.757405
2022-11-05T05:32:12.465Z,9.757558
2022-11-05T05:33:11.747Z,9.757465
2022-11-05T05:34:11.500Z,9.757332
2022-11-05T05:35:11.480Z,9.757451
2022-11-05T05:36:11.735Z,9.757396
2022-11-05T05:37:12.421Z,9.757297
2022-11-05T05:38:11.473Z,9.757375
2022-11-05T05:39:11.409Z,9.757324
2022-11-05T05:40:11.417Z,9.757566
2022-11-05T05:41:11.392Z,9.757629
2022-11-05T05:42:11.388Z,9.757586
2022-11-05T05:43:11.808Z,9.757304
2022-11-05T05:44:11.354Z,9.757359
2022-11-05T05:45:11.377Z,9.757393
2022-11-05T05:46:11.352Z,9.757406
2022-11-05T05:47:11.354Z,9.757506
2022-11-05T05:48:11.362Z,9.757250
2022-11-05T05:49:12.632Z,9.757473
2022-11-05T05:50:12.307Z,9.757377
2022-11-05T05:51:11.307Z,9.757409
2022-11-05T05:52:11.301Z,9.757379
2022-11-05T05:53:11.670Z,9.757477
2022-11-05T05:54:11.279Z,9.757533
2022-11-05T05:55:11.269Z,9.757632
2022-11-05T05:56:11.271Z,9.757671
2022-11-05T05:57:11.301Z,9.757522
2022-11-05T05:58:11.258Z,9.757532
2022-11-05T05:59:11.272Z,9.757603
2022-11-05T06:00:11.227Z,9.757656
2022-11-05T06:01:17.204Z,9.757593
2022-11-05T06:02:13.289Z,9.757499
2022-11-05T06:03:11.450Z,9.757515
2022-11-05T06:04:11.223Z,9.757573
2022-11-05T06:05:11.210Z,9.757496
2022-11-05T06:06:11.180Z,9.757565
2022-11-05T06:07:11.171Z,9.757513
2022-11-05T06:08:11.161Z,9.757488
2022-11-05T06:09:11.180Z,9.757684
2022-11-05T06:10:11.145Z,9.757576
2022-11-05T06:11:11.190Z,9.757506
2022-11-05T06:12:11.125Z,9.757547
2022-11-05T06:13:11.483Z,9.757678
2022-11-05T06:14:11.160Z,9.757538
2022-11-05T06:15:11.136Z,9.757759
2022-11-05T06:16:11.126Z,9.757578
2022-11-05T06:17:11.094Z,9.757443
2022-11-05T06:18:11.079Z,9.757457
2022-11-05T06:19:11.113Z,9.757439
2022-11-05T06:20:11.067Z,9.757335
2022-11-05T06:21:11.055Z,9.757436
2022-11-05T06:22:11.046Z,9.757497
2022-11-05T06:23:11.213Z,9.757554
2022-11-05T06:24:11.064Z,9.757510
2022-11-05T06:25:11.040Z,9.757508
2022-11-05T06:26:11.042Z,9.757424
2022-11-05T06:27:11.016Z,9.757195
2022-11-05T06:28:11.005Z,9.757434
2022-11-05T06:29:11.022Z,9.757549
2022-11-05T06:30:10.985Z,9.757506
2022-11-05T06:31:10.971Z,9.757489
2022-11-05T06:32:10.975Z,9.757580
2022-11-05T06:33:11.128Z,9.757491
2022-11-05T06:34:10.976Z,9.757554
2022-11-05T06:35:10.937Z,9.757686
2022-11-05T06:36:10.929Z,9.757583
2022-11-05T06:37:10.946Z,9.757545
2022-11-05T06:38:10.942Z,9.757547
2022-11-05T06:39:10.930Z,9.757662
2022-11-05T06:40:10.903Z,9.757416
2022-11-05T06:41:11.016Z,9.757560
2022-11-05T06:42:19.331Z,9.757528
2022-11-05T06:43:13.410Z,9.757730
2022-11-05T06:44:10.887Z,9.757466
2022-11-05T06:45:10.854Z,9.757714
2022-11-05T06:46:10.854Z,9.757757
2022-11-05T06:47:10.837Z,9.757960
2022-11-05T06:48:10.871Z,9.758061
2022-11-05T06:49:10.854Z,9.757887
2022-11-05T06:50:10.842Z,9.757709
2022-11-05T06:51:10.804Z,9.757697
2022-11-05T06:52:10.793Z,9.757861
2022-11-05T06:53:10.966Z,9.757878
2022-11-05T06:54:10.815Z,9.757565
2022-11-05T06:55:10.770Z,9.757816
2022-11-05T06:56:10.761Z,9.756510
2022-11-05T06:57:10.760Z,9.757266
2022-11-05T06:58:10.744Z,9.757557
2022-11-05T06:59:10.751Z,9.756946
2022-11-05T07:00:10.771Z,9.757247
2022-11-05T07:01:10.808Z,9.757671
2022-11-05T07:02:10.770Z,9.757509
2022-11-05T07:03:10.959Z,9.757305
2022-11-05T07:04:10.695Z,9.757537
2022-11-05T07:05:10.718Z,9.757458
2022-11-05T07:06:10.698Z,9.757677
2022-11-05T07:07:10.682Z,9.757737
2022-11-05T07:08:10.665Z,9.756848
2022-11-05T07:09:10.652Z,9.757341
2022-11-05T07:10:10.670Z,9.758047
2022-11-05T07:11:10.634Z,9.758082
2022-11-05T07:12:10.628Z,9.757831
2022-11-05T07:13:11.135Z,9.757442
2022-11-05T07:14:10.607Z,9.757987
2022-11-05T07:15:10.632Z,9.758384
2022-11-05T07:16:10.594Z,9.757482
2022-11-05T07:17:10.586Z,9.757483
2022-11-05T07:18:10.588Z,9.757422
2022-11-05T07:19:10.567Z,9.757618
2022-11-05T07:20:10.607Z,9.757480
2022-11-05T07:21:10.552Z,9.757654
2022-11-05T07:22:10.538Z,9.757525
2022-11-05T07:23:10.966Z,9.757720
2022-11-05T07:24:10.531Z,9.757562
2022-11-05T07:25:10.549Z,9.757545
2022-11-05T07:26:10.509Z,9.757877
2022-11-05T07:27:10.497Z,9.757718
2022-11-05T07:28:10.513Z,9.757526
2022-11-05T07:29:10.485Z,9.757563
2022-11-05T07:30:10.530Z,9.757545
2022-11-05T07:31:10.476Z,9.757142
2022-11-05T07:32:10.461Z,9.757212
2022-11-05T07:33:11.850Z,9.757224
2022-11-05T07:34:10.456Z,9.757396
2022-11-05T07:35:10.461Z,9.757546
2022-11-05T07:36:10.429Z,9.757352
2022-11-05T07:37:10.425Z,9.757518
2022-11-05T07:38:10.512Z,9.757444
2022-11-05T07:39:10.482Z,9.757318
2022-11-05T07:40:10.458Z,9.757735
2022-11-05T07:41:10.381Z,9.757658
2022-11-05T07:42:10.374Z,9.757387
2022-11-05T07:43:10.656Z,9.757408
2022-11-05T07:44:42.900Z,9.757310
2022-11-05T07:45:10.395Z,9.757419
2022-11-05T07:46:13.772Z,9.757612
2022-11-05T07:47:11.331Z,9.757406
2022-11-05T07:48:10.333Z,9.757464
2022-11-05T07:49:10.331Z,9.757401
2022-11-05T07:50:10.341Z,9.757448
2022-11-05T07:51:10.298Z,9.757489
2022-11-05T07:52:10.289Z,9.757382
2022-11-05T07:53:10.594Z,9.757322
2022-11-05T07:54:10.272Z,9.757242
2022-11-05T07:55:10.289Z,9.757454
2022-11-05T07:56:10.263Z,9.757627
2022-11-05T07:57:10.245Z,9.757688
2022-11-05T07:58:10.261Z,9.757673
2022-11-05T07:59:10.226Z,9.757487
2022-11-05T08:00:10.246Z,9.757464
2022-11-05T08:01:10.327Z,9.757504
2022-11-05T08:02:10.403Z,9.757461
2022-11-05T08:03:10.367Z,9.757452
2022-11-05T08:04:10.182Z,9.757498
2022-11-05T08:05:10.232Z,9.757429
2022-11-05T08:06:10.163Z,9.757457
2022-11-05T08:07:10.160Z,9.757508
2022-11-05T08:08:10.157Z,9.757319
2022-11-05T08:09:10.142Z,9.757435
2022-11-05T08:10:10.136Z,9.757515
2022-11-05T08:11:10.161Z,9.757498
2022-11-05T08:12:10.113Z,9.757574
2022-11-05T08:13:10.505Z,9.757485
2022-11-05T08:14:10.096Z,9.757517
2022-11-05T08:15:10.102Z,9.757437
2022-11-05T08:16:10.120Z,9.757520
2022-11-05T08:17:10.830Z,9.757475
2022-11-05T08:18:10.070Z,9.757451
2022-11-05T08:19:10.064Z,9.757488
2022-11-05T08:20:10.054Z,9.757337
2022-11-05T08:21:10.145Z,9.757379
2022-11-05T08:22:10.037Z,9.757401
2022-11-05T08:23:10.396Z,9.757507
2022-11-05T08:24:10.015Z,9.757375
2022-11-05T08:25:10.011Z,9.757403
2022-11-05T08:26:10.018Z,9.757452
2022-11-05T08:27:11.000Z,9.757517
2022-11-05T08:28:09.979Z,9.757419
2022-11-05T08:29:09.979Z,9.757520
2022-11-05T08:30:09.966Z,9.757520
2022-11-05T08:31:09.981Z,9.757509
2022-11-05T08:32:09.950Z,9.757451
2022-11-05T08:33:10.404Z,9.757493
2022-11-05T08:34:09.927Z,9.757500
2022-11-05T08:35:09.920Z,9.757632
2022-11-05T08:36:09.949Z,9.757535
2022-11-05T08:37:09.907Z,9.757455
2022-11-05T08:38:09.900Z,9.757504
2022-11-05T08:39:15.847Z,9.757528
2022-11-05T08:40:11.882Z,9.757471
2022-11-05T08:41:09.902Z,9.757403
2022-11-05T08:42:09.863Z,9.757558
2022-11-05T08:43:10.295Z,9.757711
2022-11-05T08:44:09.924Z,9.757530
2022-11-05T08:45:09.842Z,9.757465
2022-11-05T08:46:09.863Z,9.757545
2022-11-05T08:47:09.828Z,9.757495
2022-11-05T08:48:09.818Z,9.757470
2022-11-05T08:49:09.802Z,9.757366
2022-11-05T08:50:09.798Z,9.757489
2022-11-05T08:51:09.820Z,9.757456
2022-11-05T08:52:09.784Z,9.757470
2022-11-05T08:53:10.180Z,9.757458
2022-11-05T08:54:09.768Z,9.757505
2022-11-05T08:55:09.756Z,9.757498
2022-11-05T08:56:09.776Z,9.757615
2022-11-05T08:57:09.738Z,9.757428
2022-11-05T08:58:09.733Z,9.757517
2022-11-05T08:59:09.723Z,9.757520
2022-11-05T09:00:09.721Z,9.757463
2022-11-05T09:01:09.811Z,9.757477
2022-11-05T09:02:09.912Z,9.757470
2022-11-05T09:03:10.134Z,9.757504
2022-11-05T09:04:09.686Z,9.757436
2022-11-05T09:05:09.677Z,9.757476
2022-11-05T09:06:09.703Z,9.757497
2022-11-05T09:07:09.661Z,9.757501
2022-11-05T09:08:09.654Z,9.757494
2022-11-05T09:09:09.645Z,9.757561
2022-11-05T09:10:09.637Z,9.757586
2022-11-05T09:11:09.654Z,9.757562
2022-11-05T09:12:12.755Z,9.757536
2022-11-05T09:13:16.606Z,9.757733
2022-11-05T09:14:11.603Z,9.757562
2022-11-05T09:15:09.595Z,9.757485
2022-11-05T09:16:09.616Z,9.757247
2022-11-05T09:17:09.578Z,9.757047
2022-11-05T09:18:09.581Z,9.757089
2022-11-05T09:19:09.562Z,9.757244
2022-11-05T09:20:09.561Z,9.757430
2022-11-05T09:21:09.808Z,9.757457
2022-11-05T09:22:09.541Z,9.757365
2022-11-05T09:23:09.839Z,9.757526
2022-11-05T09:24:09.524Z,9.757723
2022-11-05T09:25:09.523Z,9.757627
2022-11-05T09:26:09.545Z,9.757594
2022-11-05T09:27:09.493Z,9.757486
2022-11-05T09:28:14.634Z,9.757589
2022-11-05T09:29:14.398Z,9.757505
2022-11-05T09:30:10.479Z,9.757480
2022-11-05T09:31:09.507Z,9.757485
2022-11-05T09:32:09.464Z,9.757540
2022-11-05T09:33:09.686Z,9.757488
2022-11-05T09:34:10.457Z,9.757507
2022-11-05T09:35:09.442Z,9.757493
2022-11-05T09:36:09.440Z,9.757490
2022-11-05T09:37:09.463Z,9.757520
2022-11-05T09:38:09.420Z,9.757526
2022-11-05T09:39:09.411Z,9.757481
2022-11-05T09:40:09.408Z,9.757545
2022-11-05T09:41:09.394Z,9.757491
2022-11-05T09:42:09.416Z,9.757503
2022-11-05T09:43:09.770Z,9.757483
2022-11-05T09:44:09.374Z,9.757502
2022-11-05T09:45:09.376Z,9.757520
2022-11-05T09:46:09.348Z,9.757491
2022-11-05T09:47:09.375Z,9.757525
2022-11-05T09:48:09.335Z,9.757508
2022-11-05T09:49:09.335Z,9.757499
2022-11-05T09:50:09.330Z,9.757509
2022-11-05T09:51:09.325Z,9.757528
2022-11-05T09:52:09.346Z,9.757495
2022-11-05T09:53:09.588Z,9.757460
2022-11-05T09:54:09.304Z,9.757549
2022-11-05T09:55:09.298Z,9.757492
2022-11-05T09:56:09.286Z,9.757500
2022-11-05T09:57:09.308Z,9.757519
2022-11-05T09:58:09.264Z,9.757448
2022-11-05T09:59:09.272Z,9.757477
2022-11-05T10:00:09.256Z,9.757617
2022-11-05T10:01:09.347Z,9.757538
2022-11-05T10:02:09.342Z,9.757557
2022-11-05T10:03:09.625Z,9.757524
2022-11-05T10:04:09.228Z,9.757554
2022-11-05T10:05:10.279Z,9.757502
2022-11-05T10:06:10.219Z,9.757493
2022-11-05T10:07:09.237Z,9.757540
2022-11-05T10:08:09.204Z,9.757587
2022-11-05T10:09:09.193Z,9.757568
2022-11-05T10:10:09.186Z,9.757453
2022-11-05T10:11:09.172Z,9.757526
2022-11-05T10:12:09.199Z,9.757436
2022-11-05T10:13:09.432Z,9.757562
2022-11-05T10:14:09.162Z,9.757384
2022-11-05T10:15:09.142Z,9.757408
2022-11-05T10:16:09.144Z,9.757423
2022-11-05T10:17:09.164Z,9.757611
2022-11-05T10:18:09.122Z,9.757604
2022-11-05T10:19:09.118Z,9.757504
2022-11-05T10:20:09.108Z,9.757479
2022-11-05T10:21:09.099Z,9.757512
2022-11-05T10:22:09.128Z,9.757474
2022-11-05T10:23:09.335Z,9.757487
2022-11-05T10:24:09.084Z,9.757434
2022-11-05T10:25:09.076Z,9.757471
2022-11-05T10:26:09.070Z,9.757455
2022-11-05T10:27:09.103Z,9.757450
2022-11-05T10:28:09.055Z,9.757465
2022-11-05T10:29:09.052Z,9.757495
2022-11-05T10:30:09.034Z,9.757455
2022-11-05T10:31:09.017Z,9.757478
2022-11-05T10:32:09.047Z,9.757499
2022-11-05T10:33:09.262Z,9.757400
2022-11-05T10:34:09.006Z,9.757387
2022-11-05T10:35:09.028Z,9.757512
2022-11-05T10:36:08.987Z,9.757544
2022-11-05T10:37:09.007Z,9.757520
2022-11-05T10:38:08.974Z,9.757480
2022-11-05T10:39:08.968Z,9.757481
2022-11-05T10:40:08.948Z,9.757485
2022-11-05T10:41:08.953Z,9.757460
2022-11-05T10:42:08.966Z,9.757441
2022-11-05T10:43:09.185Z,9.757569
2022-11-05T10:44:08.928Z,9.757367
2022-11-05T10:45:08.918Z,9.757380
2022-11-05T10:46:08.916Z,9.757319
2022-11-05T10:47:08.938Z,9.757440
2022-11-05T10:48:08.897Z,9.757412
2022-11-05T10:49:08.902Z,9.757371
2022-11-05T10:50:08.885Z,9.757482
2022-11-05T10:51:08.888Z,9.757613
2022-11-05T10:52:08.990Z,9.757602
2022-11-05T10:53:09.105Z,9.757521
2022-11-05T10:54:08.861Z,9.757483
2022-11-05T10:55:08.853Z,9.757431
2022-11-05T10:56:08.847Z,9.757493
2022-11-05T10:57:08.926Z,9.757526
2022-11-05T10:58:08.835Z,9.757520
2022-11-05T10:59:12.148Z,9.757434
2022-11-05T11:00:09.921Z,9.757383
2022-11-05T11:01:08.875Z,9.757524
2022-11-05T11:02:08.871Z,9.757387
2022-11-05T11:03:09.128Z,9.757489
2022-11-05T11:04:08.786Z,9.757369
2022-11-05T11:05:08.777Z,9.757427
2022-11-05T11:06:08.770Z,9.757379
2022-11-05T11:07:08.773Z,9.757390
2022-11-05T11:08:09.019Z,9.757529
2022-11-05T11:09:08.754Z,9.757505
2022-11-05T11:10:08.774Z,9.757395
2022-11-05T11:11:08.742Z,9.757426
2022-11-05T11:12:08.732Z,9.757452
2022-11-05T11:13:08.953Z,9.757492
2022-11-05T11:14:08.714Z,9.757560
2022-11-05T11:15:08.711Z,9.757462
2022-11-05T11:16:08.704Z,9.757490
2022-11-05T11:17:08.691Z,9.757504
2022-11-05T11:18:09.723Z,9.757478
2022-11-05T11:19:08.680Z,9.757483
2022-11-05T11:20:08.757Z,9.757523
2022-11-05T11:21:08.672Z,9.757477
2022-11-05T11:22:08.667Z,9.757551
2022-11-05T11:23:08.865Z,9.757607
2022-11-05T11:24:08.651Z,9.757520
2022-11-05T11:25:08.637Z,9.757422
2022-11-05T11:26:08.633Z,9.757423
2022-11-05T11:27:08.632Z,9.757412
2022-11-05T11:28:08.646Z,9.757372
2022-11-05T11:29:08.610Z,9.757417
2022-11-05T11:30:08.631Z,9.757443
2022-11-05T11:31:08.598Z,9.757486
2022-11-05T11:32:08.586Z,9.757476
2022-11-05T11:33:08.835Z,9.757443
2022-11-05T11:34:08.587Z,9.757563
2022-11-05T11:35:08.557Z,9.757535
2022-11-05T11:36:08.557Z,9.757511
2022-11-05T11:37:08.554Z,9.757470
2022-11-05T11:38:08.609Z,9.757417
2022-11-05T11:39:08.536Z,9.757508
2022-11-05T11:40:10.086Z,9.757559
2022-11-05T11:41:09.517Z,9.757613
2022-11-05T11:42:08.513Z,9.757516
2022-11-05T11:43:08.703Z,9.757653
2022-11-05T11:44:08.497Z,9.757585
2022-11-05T11:45:08.494Z,9.757542
2022-11-05T11:46:14.030Z,9.757517
2022-11-05T11:47:10.472Z,9.757462
2022-11-05T11:48:08.494Z,9.757504